Time;durP1;ratioP1;P1;durP2;ratioP2;P2;SDS_P1;SDS_P2;PMS_P1;PMS_P2;Temp;Humidity;BMP_temperature;BMP_pressure;BME280_temperature;BME280_humidity;BME280_pressure;Samples;Min_cycle;Max_cycle;Signal;HPM_P1;HPM_P2
2021/12/27 00:01:29;;;;;;;0.28;0.20;;;17.90;56.50;;;;;;5036735;28;20486;-49
2021/12/27 00:03:56;;;;;;;0.85;0.30;;;17.80;56.40;;;;;;5033879;28;20033;-48
2021/12/27 00:06:23;;;;;;;0.57;0.10;;;17.90;56.50;;;;;;5035309;28;20119;-50
2021/12/27 00:08:51;;;;;;;1.23;0.20;;;17.80;56.40;;;;;;5044880;28;20413;-51
2021/12/27 00:11:20;;;;;;;0.85;0.20;;;17.90;56.50;;;;;;5041287;28;20455;-54
2021/12/27 00:13:48;;;;;;;1.02;0.50;;;17.90;56.50;;;;;;5035508;28;20418;-51
2021/12/27 00:16:15;;;;;;;0.90;0.20;;;17.90;56.50;;;;;;5033864;28;20503;-49
2021/12/27 00:18:42;;;;;;;3.05;0.20;;;17.90;56.50;;;;;;5032474;28;20038;-53
2021/12/27 00:21:10;;;;;;;0.40;0.10;;;17.90;56.50;;;;;;5034397;28;20088;-51
2021/12/27 00:23:37;;;;;;;1.63;0.10;;;17.90;56.50;;;;;;5039413;28;20029;-46
2021/12/27 00:26:04;;;;;;;0.77;0.15;;;17.90;56.50;;;;;;5034221;28;20628;-48
2021/12/27 00:28:34;;;;;;;0.60;0.52;;;17.90;56.50;;;;;;5032264;28;20037;-51
2021/12/27 00:31:01;;;;;;;2.53;0.22;;;17.90;56.50;;;;;;5037763;28;20540;-47
2021/12/27 00:33:28;;;;;;;0.30;0.10;;;17.90;56.50;;;;;;5039047;28;20048;-48
2021/12/27 00:35:56;;;;;;;0.20;0.10;;;17.90;56.50;;;;;;5034381;28;20151;-51
2021/12/27 00:38:23;;;;;;;1.30;0.10;;;17.90;56.50;;;;;;5038211;28;20913;-53
2021/12/27 00:40:51;;;;;;;0.30;0.10;;;17.90;56.50;;;;;;5035602;28;20037;-45
2021/12/27 00:43:18;;;;;;;0.20;0.10;;;17.90;56.50;;;;;;5034567;28;20120;-47
2021/12/27 00:45:47;;;;;;;0.20;0.00;;;17.90;56.50;;;;;;5032255;28;20041;-45
2021/12/27 00:48:15;;;;;;;0.38;0.25;;;17.90;56.50;;;;;;5038638;28;20060;-49
2021/12/27 00:50:43;;;;;;;0.55;0.20;;;17.90;56.50;;;;;;5039802;28;20522;-46
2021/12/27 00:53:10;;;;;;;0.82;0.70;;;17.90;56.50;;;;;;5035611;28;20046;-44
2021/12/27 00:55:37;;;;;;;0.40;0.20;;;17.90;56.50;;;;;;5032162;28;20148;-45
2021/12/27 00:58:04;;;;;;;0.25;0.10;;;17.90;56.50;;;;;;5033758;28;20533;-46
2021/12/27 01:00:31;;;;;;;0.68;0.10;;;17.90;56.50;;;;;;5034435;28;20067;-45
2021/12/27 01:03:00;;;;;;;2.05;0.60;;;17.90;56.50;;;;;;5044970;28;20464;-44
2021/12/27 01:05:28;;;;;;;0.88;0.10;;;17.90;56.50;;;;;;5035795;28;20041;-50
2021/12/27 01:07:55;;;;;;;3.00;0.10;;;17.90;56.50;;;;;;5036917;28;20047;-46
2021/12/27 01:13:21;;;;;;;0.75;0.10;;;17.90;56.50;;;;;;5017528;28;20053;-47
2021/12/27 01:15:52;;;;;;;0.82;0.22;;;17.90;56.60;;;;;;5006032;28;20120;-47
2021/12/27 01:18:21;;;;;;;0.65;0.00;;;17.90;56.60;;;;;;5008224;28;20050;-44
2021/12/27 01:20:49;;;;;;;0.10;0.10;;;17.80;56.50;;;;;;5012945;28;20041;-47
2021/12/27 01:23:16;;;;;;;0.20;0.10;;;17.80;56.50;;;;;;5013140;28;20772;-47
2021/12/27 01:25:43;;;;;;;0.30;0.10;;;17.90;56.60;;;;;;5007597;28;20051;-51
2021/12/27 01:28:10;;;;;;;2.60;0.10;;;17.90;56.60;;;;;;5003651;28;20615;-50
2021/12/27 01:30:46;;;;;;;0.10;0.10;;;17.90;56.60;;;;;;5019359;28;20534;-45
2021/12/27 01:33:14;;;;;;;1.08;0.10;;;17.90;56.60;;;;;;5011018;28;20053;-46
2021/12/27 01:35:42;;;;;;;0.10;0.10;;;17.90;56.60;;;;;;5016844;28;20057;-47
2021/12/27 01:38:11;;;;;;;0.73;0.10;;;17.90;56.60;;;;;;5009803;28;20057;-49
2021/12/27 01:40:40;;;;;;;0.52;0.52;;;17.90;56.60;;;;;;5002033;28;20630;-50
2021/12/27 01:43:10;;;;;;;0.10;0.00;;;17.90;56.60;;;;;;5003470;28;20042;-47
2021/12/27 01:45:39;;;;;;;0.43;0.10;;;17.90;56.60;;;;;;5019396;28;20045;-46
2021/12/27 01:48:08;;;;;;;0.57;0.10;;;17.90;56.60;;;;;;5009253;28;20212;-48
2021/12/27 01:50:36;;;;;;;0.10;0.10;;;17.90;56.60;;;;;;5026246;28;20053;-50
2021/12/27 01:53:05;;;;;;;0.55;0.10;;;17.90;56.60;;;;;;5032946;28;20052;-53
2021/12/27 01:55:33;;;;;;;1.35;0.65;;;17.90;56.60;;;;;;5037578;28;20038;-46
2021/12/27 01:58:00;;;;;;;2.38;0.10;;;17.90;56.60;;;;;;5032596;28;20063;-48
2021/12/27 02:00:28;;;;;;;0.20;0.08;;;17.90;56.60;;;;;;5036252;28;20054;-52
2021/12/27 02:02:55;;;;;;;0.75;0.10;;;17.90;56.60;;;;;;5033765;28;20058;-47
2021/12/27 02:05:22;;;;;;;1.15;0.35;;;17.90;56.50;;;;;;5033917;28;20037;-50
2021/12/27 02:07:49;;;;;;;0.73;0.10;;;17.90;56.60;;;;;;5035191;28;20136;-52
2021/12/27 02:10:18;;;;;;;0.25;0.10;;;17.90;56.50;;;;;;5035495;28;20044;-50
2021/12/27 02:12:45;;;;;;;0.05;0.00;;;17.90;56.60;;;;;;5043910;28;20072;-48
2021/12/27 02:15:13;;;;;;;0.90;0.10;;;17.90;56.60;;;;;;5033816;28;20123;-49
2021/12/27 02:17:42;;;;;;;0.93;0.10;;;17.90;56.60;;;;;;5039020;28;20041;-49
2021/12/27 02:20:16;;;;;;;0.10;0.10;;;17.90;56.60;;;;;;5034453;28;20128;-53
2021/12/27 02:22:44;;;;;;;1.77;0.00;;;17.90;56.60;;;;;;5031430;28;20050;-52
2021/12/27 02:25:12;;;;;;;0.15;0.10;;;17.90;56.60;;;;;;5034529;28;20037;-51
2021/12/27 02:27:40;;;;;;;0.10;0.00;;;17.90;56.60;;;;;;5039476;28;20052;-48
2021/12/27 02:30:10;;;;;;;1.58;0.10;;;17.90;56.60;;;;;;5039265;28;20033;-49
2021/12/27 02:32:46;;;;;;;0.10;0.03;;;17.90;56.60;;;;;;5039297;28;20136;-47
2021/12/27 02:35:17;;;;;;;0.88;0.10;;;17.90;56.50;;;;;;5041322;28;20042;-52
2021/12/27 02:37:44;;;;;;;1.25;0.10;;;17.90;56.60;;;;;;5038711;28;20051;-51
2021/12/27 02:40:12;;;;;;;0.93;0.85;;;17.90;56.60;;;;;;5048574;28;20056;-50
2021/12/27 02:42:55;;;;;;;0.17;0.00;;;17.90;56.60;;;;;;5038098;28;20068;-45
2021/12/27 02:45:22;;;;;;;0.13;0.10;;;17.90;56.50;;;;;;5040811;28;20052;-45
2021/12/27 02:47:49;;;;;;;0.82;0.10;;;17.90;56.60;;;;;;5039706;28;20041;-44
2021/12/27 02:50:18;;;;;;;0.15;0.15;;;17.90;56.60;;;;;;5039933;28;20045;-46
2021/12/27 02:52:45;;;;;;;0.63;0.30;;;17.90;56.60;;;;;;5038069;28;20505;-47
2021/12/27 02:55:15;;;;;;;2.10;0.65;;;17.90;56.60;;;;;;5047457;28;20037;-46
2021/12/27 02:57:42;;;;;;;0.20;0.00;;;17.90;56.60;;;;;;5033056;28;20103;-46
2021/12/27 03:00:15;;;;;;;4.85;0.10;;;17.90;56.60;;;;;;5040263;28;20509;-45
2021/12/27 03:02:44;;;;;;;0.25;0.13;;;17.90;56.60;;;;;;5035462;28;20663;-45
2021/12/27 03:05:11;;;;;;;0.40;0.00;;;17.90;56.60;;;;;;5035663;28;20133;-48
2021/12/27 03:07:41;;;;;;;1.33;0.30;;;17.90;56.60;;;;;;5038484;28;20049;-49
2021/12/27 03:10:10;;;;;;;1.17;0.10;;;17.90;56.60;;;;;;5035984;28;20743;-52
2021/12/27 03:12:38;;;;;;;0.32;0.10;;;17.90;56.60;;;;;;5034162;28;20113;-50
2021/12/27 03:15:07;;;;;;;0.40;0.10;;;17.90;56.60;;;;;;5035719;28;20056;-52
2021/12/27 03:17:35;;;;;;;0.55;0.55;;;17.90;56.60;;;;;;5041075;28;20037;-50
2021/12/27 03:20:03;;;;;;;1.67;0.10;;;17.90;56.60;;;;;;5036529;28;20425;-51
2021/12/27 03:22:31;;;;;;;1.92;0.52;;;17.90;56.60;;;;;;5033882;28;20128;-48
2021/12/27 03:24:59;;;;;;;1.58;0.10;;;17.90;56.60;;;;;;5043081;28;20049;-46
2021/12/27 03:27:27;;;;;;;0.35;0.30;;;17.90;56.60;;;;;;5048639;28;20046;-48
2021/12/27 03:29:54;;;;;;;0.60;0.10;;;17.90;56.60;;;;;;5037728;28;20056;-48
2021/12/27 03:32:22;;;;;;;0.47;0.20;;;17.90;56.60;;;;;;5037540;28;20136;-47
2021/12/27 03:34:56;;;;;;;0.70;0.17;;;17.90;56.60;;;;;;5037496;28;20041;-47
2021/12/27 03:37:24;;;;;;;0.30;0.10;;;17.90;56.70;;;;;;5036138;28;20395;-49
2021/12/27 03:39:51;;;;;;;1.05;0.03;;;17.90;56.70;;;;;;5047709;28;20036;-45
2021/12/27 03:42:19;;;;;;;1.55;0.80;;;17.90;56.60;;;;;;5050034;28;20056;-47
2021/12/27 03:44:46;;;;;;;0.10;0.00;;;17.90;56.60;;;;;;5041828;28;20057;-47
2021/12/27 03:47:14;;;;;;;1.00;0.20;;;17.90;56.70;;;;;;5040186;28;20135;-45
2021/12/27 03:49:41;;;;;;;0.60;0.32;;;17.90;56.80;;;;;;5044485;28;20064;-44
2021/12/27 03:52:08;;;;;;;1.10;0.10;;;17.90;56.60;;;;;;5035540;28;20040;-45
2021/12/27 03:54:35;;;;;;;1.98;0.05;;;17.90;56.70;;;;;;5041474;28;20136;-49
2021/12/27 03:57:02;;;;;;;0.85;0.35;;;17.90;56.60;;;;;;5038252;28;20049;-47
2021/12/27 03:59:49;;;;;;;0.95;0.20;;;17.90;56.70;;;;;;5035843;28;20041;-48
2021/12/27 04:02:17;;;;;;;0.17;0.05;;;17.90;56.70;;;;;;5041387;28;20072;-48
2021/12/27 04:04:45;;;;;;;0.20;0.10;;;17.90;56.70;;;;;;5037409;28;20054;-48
2021/12/27 04:07:13;;;;;;;1.80;0.10;;;17.90;56.70;;;;;;5034318;28;20432;-46
2021/12/27 04:09:40;;;;;;;3.00;0.10;;;17.80;56.60;;;;;;5046448;28;20563;-48
2021/12/27 04:12:08;;;;;;;0.43;0.08;;;17.90;56.70;;;;;;5052309;28;20049;-51
2021/12/27 04:14:37;;;;;;;2.25;0.10;;;17.90;56.70;;;;;;5041749;28;20041;-48
2021/12/27 04:17:04;;;;;;;4.65;0.10;;;17.90;56.70;;;;;;5038154;28;20068;-45
2021/12/27 04:19:31;;;;;;;0.40;0.10;;;17.90;56.70;;;;;;5034216;28;20041;-50
2021/12/27 04:21:58;;;;;;;0.10;0.10;;;17.90;57.20;;;;;;5031715;28;20049;-50
2021/12/27 04:24:25;;;;;;;2.28;0.10;;;17.90;56.70;;;;;;5032717;28;20048;-48
2021/12/27 04:26:52;;;;;;;0.50;0.50;;;17.90;57.20;;;;;;5039257;28;20525;-49
2021/12/27 04:29:19;;;;;;;0.30;0.10;;;17.90;56.70;;;;;;5034651;28;20494;-52
2021/12/27 04:31:48;;;;;;;0.55;0.55;;;17.90;56.70;;;;;;5033494;28;20422;-50
2021/12/27 04:34:14;;;;;;;0.25;0.10;;;17.90;56.70;;;;;;5033707;28;20040;-50
2021/12/27 04:36:41;;;;;;;2.05;0.00;;;17.80;56.60;;;;;;5035164;28;20041;-45
2021/12/27 04:39:09;;;;;;;1.90;0.32;;;17.90;56.70;;;;;;5046289;28;20040;-50
2021/12/27 04:41:36;;;;;;;1.67;0.20;;;17.90;56.70;;;;;;5038430;28;20784;-51
2021/12/27 04:44:04;;;;;;;1.00;0.08;;;17.90;56.70;;;;;;5037440;28;20594;-46
2021/12/27 04:46:32;;;;;;;1.40;0.10;;;17.90;56.70;;;;;;5034765;28;20045;-51
2021/12/27 04:49:00;;;;;;;0.95;0.00;;;17.90;56.70;;;;;;5031946;28;20559;-48
2021/12/27 04:51:27;;;;;;;1.10;0.10;;;17.90;56.70;;;;;;5033625;28;20049;-49
2021/12/27 04:53:55;;;;;;;0.20;0.10;;;17.90;56.70;;;;;;5039808;28;20449;-50
2021/12/27 04:56:22;;;;;;;2.03;0.40;;;17.90;56.60;;;;;;5036874;28;20049;-49
2021/12/27 04:58:51;;;;;;;0.10;0.10;;;17.90;56.70;;;;;;5034417;28;20140;-48
2021/12/27 05:01:18;;;;;;;1.20;0.20;;;17.90;56.70;;;;;;5034359;28;20040;-49
2021/12/27 05:03:45;;;;;;;3.85;0.65;;;17.90;56.70;;;;;;5036459;28;20510;-51
2021/12/27 05:06:14;;;;;;;1.13;0.22;;;17.90;56.60;;;;;;5035721;28;20057;-49
2021/12/27 05:08:41;;;;;;;1.13;0.45;;;17.90;56.70;;;;;;5038824;28;20077;-49
2021/12/27 05:11:08;;;;;;;1.27;0.47;;;17.90;56.70;;;;;;5038402;28;20048;-50
2021/12/27 05:13:36;;;;;;;0.45;0.00;;;17.90;56.70;;;;;;5036004;28;20041;-50
2021/12/27 05:16:04;;;;;;;1.30;0.13;;;17.90;56.70;;;;;;5030205;28;20033;-48
2021/12/27 05:18:31;;;;;;;1.65;0.10;;;17.90;56.70;;;;;;5033854;28;20754;-51
2021/12/27 05:20:59;;;;;;;2.15;0.10;;;17.90;56.70;;;;;;5040905;28;20050;-48
2021/12/27 05:23:27;;;;;;;1.08;0.10;;;17.80;56.60;;;;;;5036303;28;20045;-46
2021/12/27 05:25:54;;;;;;;0.25;0.10;;;17.90;56.70;;;;;;5034526;28;20126;-51
2021/12/27 05:28:21;;;;;;;2.75;0.10;;;17.90;56.70;;;;;;5034350;28;20040;-50
2021/12/27 05:30:51;;;;;;;0.80;0.10;;;17.90;56.70;;;;;;5029887;28;20067;-47
2021/12/27 05:33:19;;;;;;;1.00;0.20;;;17.90;56.70;;;;;;5061081;28;20049;-47
2021/12/27 05:35:46;;;;;;;0.28;0.00;;;17.90;56.60;;;;;;5039028;28;20140;-48
2021/12/27 05:38:13;;;;;;;2.08;0.25;;;17.90;56.60;;;;;;5039315;28;20044;-48
2021/12/27 05:40:42;;;;;;;0.55;0.00;;;17.90;56.70;;;;;;5043819;28;20048;-51
2021/12/27 05:43:09;;;;;;;1.35;0.10;;;17.90;56.70;;;;;;5032651;28;20385;-50
2021/12/27 05:45:36;;;;;;;0.20;0.10;;;17.80;56.60;;;;;;5033298;28;20064;-50
2021/12/27 05:48:05;;;;;;;0.52;0.10;;;17.90;56.70;;;;;;5032065;28;20072;-48
2021/12/27 05:50:32;;;;;;;1.48;0.10;;;17.90;56.70;;;;;;5040367;28;20048;-51
2021/12/27 05:52:59;;;;;;;3.08;0.10;;;17.90;56.70;;;;;;5035584;28;20107;-50
2021/12/27 05:55:26;;;;;;;1.65;0.20;;;17.90;56.70;;;;;;5033138;28;20559;-53
2021/12/27 05:57:55;;;;;;;0.40;0.22;;;17.90;56.60;;;;;;5030533;28;20048;-51
2021/12/27 06:00:22;;;;;;;0.77;0.05;;;17.90;56.70;;;;;;5034657;28;20043;-51
2021/12/27 06:02:51;;;;;;;2.17;0.30;;;17.90;57.20;;;;;;5039112;28;20048;-53
2021/12/27 06:05:19;;;;;;;1.75;0.10;;;17.90;56.60;;;;;;5033566;28;20048;-49
2021/12/27 06:07:46;;;;;;;3.33;0.73;;;17.90;56.60;;;;;;5034830;28;20041;-50
2021/12/27 06:10:13;;;;;;;0.55;0.10;;;17.90;56.70;;;;;;5044523;28;20043;-52
2021/12/27 06:12:40;;;;;;;1.40;0.32;;;17.80;56.60;;;;;;5034436;28;20057;-48
2021/12/27 06:15:10;;;;;;;1.80;0.35;;;17.90;56.70;;;;;;5033550;28;20045;-50
2021/12/27 06:17:37;;;;;;;1.83;1.33;;;17.90;56.60;;;;;;5034527;28;20069;-49
2021/12/27 06:20:07;;;;;;;0.28;0.03;;;17.90;56.70;;;;;;5036423;28;20704;-48
2021/12/27 06:22:35;;;;;;;0.98;0.10;;;17.90;56.70;;;;;;5033352;28;20064;-49
2021/12/27 06:25:04;;;;;;;2.30;0.20;;;17.90;56.70;;;;;;5030834;28;20048;-52
2021/12/27 06:27:32;;;;;;;0.70;0.10;;;17.80;56.60;;;;;;5032518;28;20049;-46
2021/12/27 06:29:59;;;;;;;1.17;0.10;;;17.80;56.70;;;;;;5038905;28;20113;-53
2021/12/27 06:32:27;;;;;;;0.93;0.10;;;17.90;56.70;;;;;;5035273;28;20045;-50
2021/12/27 06:34:54;;;;;;;2.60;0.10;;;17.90;56.70;;;;;;5033384;28;20047;-51
2021/12/27 06:37:22;;;;;;;0.15;0.10;;;17.80;56.60;;;;;;5033139;28;20041;-51
2021/12/27 06:39:49;;;;;;;0.57;0.10;;;17.80;56.70;;;;;;5035588;28;20149;-51
2021/12/27 06:42:16;;;;;;;0.75;0.20;;;17.80;56.60;;;;;;5035367;28;20129;-52
2021/12/27 06:44:43;;;;;;;0.52;0.10;;;17.80;56.70;;;;;;5034989;28;20061;-48
2021/12/27 06:47:10;;;;;;;1.33;0.00;;;17.80;56.60;;;;;;5037490;28;20041;-50
2021/12/27 06:49:39;;;;;;;0.73;0.47;;;17.80;56.60;;;;;;5035377;28;20060;-49
2021/12/27 06:52:07;;;;;;;0.30;0.00;;;17.80;56.60;;;;;;5029106;28;20488;-51
2021/12/27 06:54:34;;;;;;;1.95;0.10;;;17.80;56.60;;;;;;5031439;28;20057;-47
2021/12/27 06:57:01;;;;;;;0.40;0.10;;;17.80;56.60;;;;;;5033992;28;20053;-47
2021/12/27 06:59:29;;;;;;;3.45;0.20;;;17.80;56.70;;;;;;5031695;28;20042;-49
2021/12/27 07:01:56;;;;;;;1.65;0.20;;;17.80;56.70;;;;;;5034378;28;20091;-49
2021/12/27 07:04:23;;;;;;;1.80;0.10;;;17.80;56.70;;;;;;5031451;28;20041;-50
2021/12/27 07:06:52;;;;;;;0.63;0.10;;;17.80;56.70;;;;;;5029263;28;20058;-50
2021/12/27 07:09:19;;;;;;;0.17;0.10;;;17.80;56.70;;;;;;5031232;28;20033;-45
2021/12/27 07:11:46;;;;;;;1.10;0.20;;;17.80;56.70;;;;;;5038512;28;20049;-49
2021/12/27 07:14:13;;;;;;;1.98;0.10;;;17.80;56.70;;;;;;5035686;28;20057;-48
2021/12/27 07:16:40;;;;;;;1.67;0.38;;;17.80;56.70;;;;;;5035912;28;20535;-47
2021/12/27 07:19:07;;;;;;;1.33;0.10;;;17.80;56.70;;;;;;5035653;28;20147;-44
2021/12/27 07:21:34;;;;;;;2.47;0.30;;;17.80;56.70;;;;;;5039146;28;20410;-46
2021/12/27 07:24:03;;;;;;;1.17;0.15;;;17.80;56.70;;;;;;5036762;28;20132;-48
2021/12/27 07:26:30;;;;;;;0.80;0.10;;;17.80;56.70;;;;;;5036239;28;20124;-47
2021/12/27 07:28:57;;;;;;;0.90;0.10;;;17.80;56.70;;;;;;5037975;28;20041;-47
2021/12/27 07:31:24;;;;;;;3.50;0.25;;;17.80;56.70;;;;;;5036340;28;20083;-47
2021/12/27 07:33:52;;;;;;;1.17;0.30;;;17.80;56.70;;;;;;5032704;28;20078;-50
2021/12/27 07:36:19;;;;;;;0.40;0.10;;;17.80;56.70;;;;;;5035784;28;20049;-48
2021/12/27 07:38:46;;;;;;;0.65;0.20;;;17.80;56.70;;;;;;5041641;28;20064;-50
2021/12/27 07:41:14;;;;;;;0.40;0.10;;;17.80;56.70;;;;;;5037030;28;20053;-50
2021/12/27 07:43:41;;;;;;;1.73;0.13;;;17.80;56.80;;;;;;5035333;28;20107;-49
2021/12/27 07:46:09;;;;;;;1.13;0.10;;;17.80;56.80;;;;;;5035554;28;20040;-45
2021/12/27 07:48:36;;;;;;;0.17;0.10;;;17.80;56.80;;;;;;5039068;28;20048;-51
2021/12/27 07:51:03;;;;;;;1.05;0.20;;;17.80;56.80;;;;;;5038020;28;20056;-45
2021/12/27 07:53:30;;;;;;;0.55;0.10;;;17.70;56.70;;;;;;5037709;28;20040;-47
2021/12/27 07:55:57;;;;;;;0.82;0.10;;;17.80;56.80;;;;;;5037006;28;20152;-51
2021/12/27 07:58:26;;;;;;;0.30;0.10;;;17.70;56.70;;;;;;5037556;28;20076;-48
2021/12/27 08:00:54;;;;;;;1.15;0.10;;;17.70;56.70;;;;;;5033377;28;20050;-45
2021/12/27 08:03:22;;;;;;;0.98;0.25;;;17.70;56.70;;;;;;5036724;28;20152;-46
2021/12/27 08:05:49;;;;;;;1.77;0.85;;;17.70;56.70;;;;;;5041156;28;20045;-51
2021/12/27 08:08:17;;;;;;;1.25;0.10;;;17.80;56.80;;;;;;5040610;28;20413;-50
2021/12/27 08:10:45;;;;;;;1.20;0.10;;;17.70;56.70;;;;;;5044206;28;20055;-49
2021/12/27 08:13:12;;;;;;;0.55;0.10;;;17.70;56.70;;;;;;5035786;28;20037;-47
2021/12/27 08:15:40;;;;;;;0.57;0.10;;;17.70;56.70;;;;;;5047307;28;20094;-49
2021/12/27 08:18:07;;;;;;;0.30;0.10;;;17.70;56.70;;;;;;5038522;28;20041;-49
2021/12/27 08:20:34;;;;;;;0.30;0.10;;;17.70;56.70;;;;;;5038313;28;20069;-50
2021/12/27 08:23:02;;;;;;;0.45;0.10;;;17.70;56.70;;;;;;5033225;28;20529;-49
2021/12/27 08:25:29;;;;;;;0.98;0.10;;;17.70;56.70;;;;;;5031228;28;20502;-50
2021/12/27 08:27:56;;;;;;;1.27;0.10;;;17.70;56.70;;;;;;5032575;28;20136;-50
2021/12/27 08:30:23;;;;;;;2.53;0.32;;;17.70;56.70;;;;;;5039132;28;20060;-48
2021/12/27 08:32:54;;;;;;;1.20;0.10;;;17.70;56.80;;;;;;5034344;28;20043;-48
2021/12/27 08:35:21;;;;;;;0.98;0.57;;;17.70;57.30;;;;;;5034345;28;20042;-46
2021/12/27 08:37:48;;;;;;;1.45;0.10;;;17.70;57.30;;;;;;5036875;28;21050;-48
2021/12/27 08:40:15;;;;;;;0.10;0.03;;;17.70;56.80;;;;;;5034238;28;20127;-50
2021/12/27 08:42:43;;;;;;;0.98;0.80;;;17.70;56.80;;;;;;5032234;28;20037;-46
2021/12/27 08:45:11;;;;;;;0.60;0.20;;;17.70;56.80;;;;;;5034581;28;20064;-46
2021/12/27 08:47:39;;;;;;;0.40;0.10;;;17.70;56.70;;;;;;5039197;28;20394;-48
2021/12/27 08:50:12;;;;;;;0.30;0.10;;;17.70;56.70;;;;;;5035109;28;20059;-46
2021/12/27 08:52:39;;;;;;;0.32;0.10;;;17.70;56.70;;;;;;5031996;28;20529;-49
2021/12/27 08:55:07;;;;;;;0.40;0.28;;;17.70;56.70;;;;;;5046067;28;20041;-45
2021/12/27 08:57:34;;;;;;;0.30;0.10;;;17.70;56.70;;;;;;5037138;28;20034;-47
2021/12/27 09:00:03;;;;;;;1.25;0.30;;;17.70;56.70;;;;;;5035930;28;20049;-48
2021/12/27 09:02:30;;;;;;;1.02;0.20;;;17.70;56.70;;;;;;5035886;28;20046;-49
2021/12/27 09:04:57;;;;;;;1.27;0.20;;;17.70;56.70;;;;;;5036748;28;20050;-46
2021/12/27 09:07:25;;;;;;;1.08;0.38;;;17.70;56.70;;;;;;5035681;28;20051;-47
2021/12/27 09:09:52;;;;;;;1.23;0.30;;;17.70;56.70;;;;;;5044423;28;20045;-46
2021/12/27 09:12:20;;;;;;;0.73;0.20;;;17.70;56.70;;;;;;5035526;28;20051;-47
2021/12/27 09:14:47;;;;;;;1.15;0.10;;;17.70;56.70;;;;;;5040814;28;20064;-48
2021/12/27 09:17:14;;;;;;;2.20;0.50;;;17.70;56.70;;;;;;5036312;28;20048;-49
2021/12/27 09:19:42;;;;;;;0.38;0.32;;;17.70;56.70;;;;;;5032904;28;20109;-48
2021/12/27 09:22:09;;;;;;;0.43;0.10;;;17.70;56.70;;;;;;5033961;28;20839;-47
2021/12/27 09:24:38;;;;;;;1.75;0.60;;;17.70;56.70;;;;;;5037624;28;20612;-48
2021/12/27 09:27:05;;;;;;;2.88;1.25;;;17.70;56.70;;;;;;5036378;28;20049;-51
2021/12/27 09:29:32;;;;;;;1.27;0.25;;;17.70;56.60;;;;;;5037004;28;20048;-48
2021/12/27 09:31:59;;;;;;;0.88;0.40;;;17.70;56.60;;;;;;5037351;28;20120;-49
2021/12/27 09:34:27;;;;;;;1.90;0.20;;;17.70;56.60;;;;;;5042537;28;20049;-46
2021/12/27 09:36:54;;;;;;;1.10;0.40;;;17.70;56.60;;;;;;5030899;28;20073;-46
2021/12/27 09:39:21;;;;;;;1.77;0.20;;;17.70;56.60;;;;;;5039005;28;20132;-50
2021/12/27 09:41:49;;;;;;;1.02;0.40;;;17.80;56.70;;;;;;5034417;28;20049;-48
2021/12/27 09:44:16;;;;;;;1.58;0.50;;;17.70;56.60;;;;;;5033261;28;20048;-45
2021/12/27 09:46:43;;;;;;;1.10;0.20;;;17.70;56.50;;;;;;5033745;28;20055;-47
2021/12/27 09:49:13;;;;;;;1.67;0.30;;;17.70;56.50;;;;;;5033324;28;20044;-49
2021/12/27 09:51:41;;;;;;;1.02;0.20;;;17.70;56.50;;;;;;5030683;28;20421;-48
2021/12/27 09:54:09;;;;;;;3.55;0.75;;;17.70;56.50;;;;;;5033101;28;20091;-48
2021/12/27 09:56:36;;;;;;;1.95;0.47;;;17.70;56.50;;;;;;5038527;28;20209;-47
2021/12/27 09:59:06;;;;;;;0.40;0.20;;;17.70;56.50;;;;;;5034088;28;20045;-49
2021/12/27 10:01:35;;;;;;;1.70;0.20;;;17.70;56.50;;;;;;5033431;28;20041;-47
2021/12/27 10:04:04;;;;;;;0.52;0.10;;;17.70;56.50;;;;;;5029863;28;20040;-46
2021/12/27 10:06:33;;;;;;;1.55;0.20;;;17.80;56.60;;;;;;5032817;28;20049;-48
2021/12/27 10:09:05;;;;;;;1.05;0.30;;;17.70;56.50;;;;;;5044408;28;20071;-53
2021/12/27 10:11:35;;;;;;;2.00;0.10;;;17.80;56.50;;;;;;5037405;28;20041;-51
2021/12/27 10:14:06;;;;;;;0.45;0.20;;;17.70;56.50;;;;;;5036315;28;20608;-47
2021/12/27 10:16:36;;;;;;;2.10;0.20;;;17.70;56.50;;;;;;5034079;28;20045;-47
2021/12/27 10:19:06;;;;;;;1.27;0.20;;;17.70;56.50;;;;;;5029476;28;20036;-45
2021/12/27 10:21:34;;;;;;;2.33;0.95;;;17.70;56.50;;;;;;5031440;28;20057;-46
2021/12/27 10:24:06;;;;;;;1.55;1.13;;;17.70;56.50;;;;;;5039420;28;20453;-48
2021/12/27 10:26:35;;;;;;;2.88;0.10;;;17.70;56.50;;;;;;5034541;28;20045;-49
2021/12/27 10:29:12;;;;;;;2.10;0.28;;;17.70;56.50;;;;;;5034349;28;20033;-46
2021/12/27 10:31:57;;;;;;;0.52;0.20;;;17.80;56.50;;;;;;5033200;28;20073;-50
2021/12/27 10:34:26;;;;;;;0.77;0.22;;;17.80;56.50;;;;;;5034715;28;20037;-40
2021/12/27 10:37:19;;;;;;;0.60;0.30;;;17.70;56.50;;;;;;5031084;28;20045;-51
2021/12/27 10:39:55;;;;;;;1.25;0.20;;;17.80;56.50;;;;;;5019584;28;20045;-48
2021/12/27 10:42:25;;;;;;;0.77;0.40;;;17.70;56.50;;;;;;5037676;28;20146;-49
2021/12/27 10:44:55;;;;;;;0.80;0.38;;;17.70;56.60;;;;;;5034972;28;20132;-50
2021/12/27 10:47:30;;;;;;;1.15;0.30;;;17.80;56.60;;;;;;5039117;28;20041;-49
2021/12/27 10:50:03;;;;;;;1.42;0.10;;;17.70;56.50;;;;;;5037103;28;20048;-50
2021/12/27 10:52:45;;;;;;;1.45;0.20;;;17.70;56.50;;;;;;5036868;28;20091;-46
2021/12/27 10:55:12;;;;;;;0.80;0.22;;;17.80;56.50;;;;;;5034223;28;20033;-47
2021/12/27 10:57:39;;;;;;;0.98;0.10;;;17.70;56.50;;;;;;5036405;28;20624;-46
2021/12/27 11:00:32;;;;;;;1.00;0.28;;;17.70;56.50;;;;;;5038431;28;20482;-45
2021/12/27 11:03:02;;;;;;;0.10;0.10;;;17.80;56.50;;;;;;5026080;28;20052;-52
2021/12/27 11:05:32;;;;;;;0.20;0.15;;;17.70;56.50;;;;;;5039943;28;20045;-53
2021/12/27 11:08:02;;;;;;;0.77;0.20;;;17.70;56.50;;;;;;5038016;28;20045;-48
2021/12/27 11:10:32;;;;;;;1.05;0.17;;;17.70;56.50;;;;;;5043139;28;20052;-48
2021/12/27 11:13:00;;;;;;;0.50;0.25;;;17.80;56.50;;;;;;5035093;28;20044;-50
2021/12/27 11:15:29;;;;;;;2.63;0.20;;;17.70;56.50;;;;;;5038986;28;20567;-48
2021/12/27 11:17:58;;;;;;;1.00;0.10;;;17.70;56.50;;;;;;5036137;28;20133;-50
2021/12/27 11:20:25;;;;;;;0.50;0.20;;;17.70;56.50;;;;;;5036569;28;20566;-47
2021/12/27 11:22:55;;;;;;;1.15;0.22;;;17.70;56.50;;;;;;5038129;28;20111;-47
2021/12/27 11:25:28;;;;;;;1.98;0.38;;;17.80;56.60;;;;;;5036013;28;20041;-51
2021/12/27 11:27:55;;;;;;;0.32;0.13;;;17.80;56.50;;;;;;5033666;28;20056;-55
2021/12/27 11:30:24;;;;;;;0.57;0.20;;;17.80;56.50;;;;;;5039355;28;20045;-47
2021/12/27 11:33:09;;;;;;;0.47;0.20;;;17.80;56.50;;;;;;5041234;28;20053;-49
2021/12/27 11:35:57;;;;;;;0.73;0.15;;;17.80;56.50;;;;;;5037212;28;20116;-48
2021/12/27 11:38:30;;;;;;;0.20;0.20;;;17.80;56.50;;;;;;5046435;28;20042;-52
2021/12/27 11:40:57;;;;;;;0.40;0.13;;;17.80;56.60;;;;;;5038607;28;20043;-48
2021/12/27 11:43:24;;;;;;;0.40;0.10;;;17.80;56.60;;;;;;5037278;28;20041;-48
2021/12/27 11:45:54;;;;;;;0.20;0.15;;;17.80;56.60;;;;;;5046435;28;20063;-49
2021/12/27 11:48:24;;;;;;;0.20;0.20;;;17.90;56.50;;;;;;5036598;28;20042;-45
2021/12/27 11:51:07;;;;;;;0.40;0.22;;;17.90;56.50;;;;;;5042214;28;20037;-47
2021/12/27 11:53:36;;;;;;;0.52;0.10;;;18.00;56.40;;;;;;5041182;28;20037;-48
2021/12/27 11:56:08;;;;;;;0.45;0.10;;;18.00;56.40;;;;;;5037072;28;20041;-48
2021/12/27 11:58:37;;;;;;;0.43;0.10;;;18.10;56.40;;;;;;5035859;28;20421;-48
2021/12/27 12:01:05;;;;;;;0.60;0.30;;;18.20;56.30;;;;;;5032258;28;20041;-51
2021/12/27 12:03:42;;;;;;;1.27;0.00;;;18.20;56.20;;;;;;5031682;28;20084;-49
2021/12/27 12:06:42;;;;;;;0.68;0.10;;;18.30;56.00;;;;;;5037803;28;20041;-46
2021/12/27 12:09:15;;;;;;;1.85;0.10;;;18.40;55.80;;;;;;5042317;28;20047;-46
2021/12/27 12:11:43;;;;;;;0.65;0.20;;;18.40;55.70;;;;;;5038370;28;20049;-51
2021/12/27 12:14:35;;;;;;;1.10;0.20;;;18.50;55.60;;;;;;5038948;28;20500;-47
2021/12/27 12:17:04;;;;;;;0.10;0.10;;;18.60;55.40;;;;;;5021263;28;20703;-47
2021/12/27 12:19:46;;;;;;;1.85;0.10;;;18.70;55.50;;;;;;5032358;28;20041;-53
2021/12/27 12:22:35;;;;;;;0.13;0.10;;;18.70;55.30;;;;;;5033535;28;20041;-49
2021/12/27 12:25:17;;;;;;;0.30;0.10;;;18.80;55.10;;;;;;5030034;28;20041;-49
2021/12/27 12:27:53;;;;;;;0.22;0.10;;;18.90;55.00;;;;;;5029753;28;20049;-49
2021/12/27 12:30:20;;;;;;;1.10;0.20;;;18.90;54.90;;;;;;5032393;28;20060;-48
2021/12/27 12:33:05;;;;;;;0.68;0.10;;;18.90;54.80;;;;;;5038680;28;20041;-52
2021/12/27 12:35:45;;;;;;;0.13;0.10;;;18.90;54.60;;;;;;5041750;28;20060;-51
2021/12/27 12:38:19;;;;;;;0.20;0.10;;;18.90;54.60;;;;;;5038947;28;20052;-49
2021/12/27 12:41:13;;;;;;;0.38;0.30;;;19.00;54.60;;;;;;5035330;28;20052;-49
2021/12/27 12:43:43;;;;;;;0.35;0.25;;;19.00;54.60;;;;;;5031180;28;20140;-52
2021/12/27 12:46:16;;;;;;;0.50;0.10;;;18.90;54.50;;;;;;5046288;28;20067;-48
2021/12/27 12:48:44;;;;;;;0.10;0.10;;;19.00;54.50;;;;;;5034567;28;20148;-49
2021/12/27 12:51:12;;;;;;;0.43;0.30;;;19.00;54.50;;;;;;5040446;28;20052;-47
2021/12/27 12:53:39;;;;;;;0.10;0.10;;;19.00;54.40;;;;;;5035860;28;20076;-48
2021/12/27 12:56:07;;;;;;;0.47;0.10;;;19.00;54.30;;;;;;5037771;28;20120;-48
2021/12/27 12:58:36;;;;;;;0.20;0.10;;;19.10;54.30;;;;;;5034713;28;20051;-46
2021/12/27 13:01:05;;;;;;;3.03;0.32;;;19.20;54.20;;;;;;5030343;28;20040;-49